PASN/SNP METAR and TAF weather

Enter ICAO airport designator
Station Type Date Time Source
PASN METAR 2023/01/29 18:29 UTC NOAA

PASN 291829Z AUTO 16010KT 1 1/2SM BR OVC004 02/02 A2963 RMK AO2 T00220022 FZRANO TSNO $


Station Type Date Time Source
PASN Decoded METAR 2023/01/29 18:29 UTC NOAA

ST PAUL ISLAND AIRPORT, AK, United States (PASN) 57-10N 170-13W 9M
Jan 29, 2023 - 01:29 PM EST / 2023.01.29 1829 UTC
Wind: from the SSE (160 degrees) at 12 MPH (10 KT):0
Visibility: 1 1/2 mile(s):0
Sky conditions: overcast
Weather: mist
Temperature: 36.0 F (2.2 C)
Dew Point: 36.0 F (2.2 C)
Relative Humidity: 100%
Pressure (altimeter): 29.63 in. Hg (1003 hPa)
ob: PASN 291829Z AUTO 16010KT 1 1/2SM BR OVC004 02/02 A2963 RMK AO2 T00220022 FZRANO TSNO
cycle: 18

Station Type Date Time Source
PASN TAF 2023/01/29 18:27 UTC NOAA

TAF PASN 291724Z 2918/3018 16012KT 4SM -SNRA BR OVC005
TEMPO 2918/2922 1/2SM -SNRA FZFG OVC004
FM292200 18012KT 1 1/2SM -SNRA BR OVC005
FM300300 23012KT 2SM -SNRA BR OVC005

Example: see airport list